sensor_id;sensor_type;location;lat;lon;timestamp;P1;durP1;ratioP1;P2;durP2;ratioP2
9306;SDS011;4691;47.612;7.610;2022-12-13T00:01:52;74.03;;;24.27;;
9306;SDS011;4691;47.612;7.610;2022-12-13T00:04:19;86.25;;;25.92;;
9306;SDS011;4691;47.612;7.610;2022-12-13T00:06:46;84.50;;;26.52;;
9306;SDS011;4691;47.612;7.610;2022-12-13T00:09:13;91.68;;;27.73;;
9306;SDS011;4691;47.612;7.610;2022-12-13T00:11:39;75.38;;;25.02;;
9306;SDS011;4691;47.612;7.610;2022-12-13T00:14:05;83.97;;;28.45;;
9306;SDS011;4691;47.612;7.610;2022-12-13T00:16:30;91.05;;;25.83;;
9306;SDS011;4691;47.612;7.610;2022-12-13T00:18:59;80.18;;;25.88;;
9306;SDS011;4691;47.612;7.610;2022-12-13T00:21:29;70.05;;;23.17;;
9306;SDS011;4691;47.612;7.610;2022-12-13T00:23:56;80.68;;;26.40;;
9306;SDS011;4691;47.612;7.610;2022-12-13T00:26:24;68.60;;;24.33;;
9306;SDS011;4691;47.612;7.610;2022-12-13T00:28:51;69.78;;;24.42;;
9306;SDS011;4691;47.612;7.610;2022-12-13T00:31:18;64.00;;;23.35;;
9306;SDS011;4691;47.612;7.610;2022-12-13T00:33:45;59.58;;;21.60;;
9306;SDS011;4691;47.612;7.610;2022-12-13T00:36:10;68.32;;;24.63;;
9306;SDS011;4691;47.612;7.610;2022-12-13T00:38:36;69.95;;;23.33;;
9306;SDS011;4691;47.612;7.610;2022-12-13T00:41:23;70.05;;;23.70;;
9306;SDS011;4691;47.612;7.610;2022-12-13T00:43:47;59.55;;;21.55;;
9306;SDS011;4691;47.612;7.610;2022-12-13T00:46:13;53.80;;;20.67;;
9306;SDS011;4691;47.612;7.610;2022-12-13T00:48:41;52.25;;;19.73;;
9306;SDS011;4691;47.612;7.610;2022-12-13T00:51:07;53.72;;;19.75;;
9306;SDS011;4691;47.612;7.610;2022-12-13T00:53:33;74.47;;;23.30;;
9306;SDS011;4691;47.612;7.610;2022-12-13T00:55:59;67.88;;;22.50;;
9306;SDS011;4691;47.612;7.610;2022-12-13T00:58:25;64.10;;;23.98;;
9306;SDS011;4691;47.612;7.610;2022-12-13T01:00:50;61.97;;;22.25;;
9306;SDS011;4691;47.612;7.610;2022-12-13T01:03:15;72.28;;;23.85;;
9306;SDS011;4691;47.612;7.610;2022-12-13T01:05:49;65.30;;;22.83;;
9306;SDS011;4691;47.612;7.610;2022-12-13T01:08:15;62.47;;;21.48;;
9306;SDS011;4691;47.612;7.610;2022-12-13T01:10:41;60.42;;;21.50;;
9306;SDS011;4691;47.612;7.610;2022-12-13T01:13:08;58.05;;;20.95;;
9306;SDS011;4691;47.612;7.610;2022-12-13T01:15:33;61.33;;;25.42;;
9306;SDS011;4691;47.612;7.610;2022-12-13T01:17:59;65.55;;;24.98;;
9306;SDS011;4691;47.612;7.610;2022-12-13T01:20:24;61.03;;;22.52;;
9306;SDS011;4691;47.612;7.610;2022-12-13T01:22:49;70.78;;;25.48;;
9306;SDS011;4691;47.612;7.610;2022-12-13T01:25:14;61.97;;;24.70;;
9306;SDS011;4691;47.612;7.610;2022-12-13T01:27:40;65.30;;;24.33;;
9306;SDS011;4691;47.612;7.610;2022-12-13T01:30:05;64.95;;;24.10;;
9306;SDS011;4691;47.612;7.610;2022-12-13T01:32:31;72.32;;;25.75;;
9306;SDS011;4691;47.612;7.610;2022-12-13T01:34:56;59.38;;;23.17;;
9306;SDS011;4691;47.612;7.610;2022-12-13T01:37:21;67.25;;;22.67;;
9306;SDS011;4691;47.612;7.610;2022-12-13T01:39:47;60.28;;;22.77;;
9306;SDS011;4691;47.612;7.610;2022-12-13T01:42:12;62.30;;;22.85;;
9306;SDS011;4691;47.612;7.610;2022-12-13T01:44:55;67.72;;;22.40;;
9306;SDS011;4691;47.612;7.610;2022-12-13T01:47:44;62.38;;;21.65;;
9306;SDS011;4691;47.612;7.610;2022-12-13T01:50:14;60.42;;;21.17;;
9306;SDS011;4691;47.612;7.610;2022-12-13T01:52:42;57.70;;;20.65;;
9306;SDS011;4691;47.612;7.610;2022-12-13T01:55:09;60.83;;;22.05;;
9306;SDS011;4691;47.612;7.610;2022-12-13T01:57:38;63.30;;;22.30;;
9306;SDS011;4691;47.612;7.610;2022-12-13T02:00:06;63.63;;;21.75;;
9306;SDS011;4691;47.612;7.610;2022-12-13T02:02:33;51.40;;;19.77;;
9306;SDS011;4691;47.612;7.610;2022-12-13T02:05:02;59.38;;;20.25;;
9306;SDS011;4691;47.612;7.610;2022-12-13T02:07:33;50.85;;;18.83;;
9306;SDS011;4691;47.612;7.610;2022-12-13T02:10:01;54.35;;;20.52;;
9306;SDS011;4691;47.612;7.610;2022-12-13T02:12:29;58.65;;;20.92;;
9306;SDS011;4691;47.612;7.610;2022-12-13T02:14:57;53.67;;;20.73;;
9306;SDS011;4691;47.612;7.610;2022-12-13T02:23:02;49.33;;;19.15;;
9306;SDS011;4691;47.612;7.610;2022-12-13T02:31:11;54.35;;;19.92;;
9306;SDS011;4691;47.612;7.610;2022-12-13T02:33:49;61.17;;;21.35;;
9306;SDS011;4691;47.612;7.610;2022-12-13T02:41:50;58.05;;;20.33;;
9306;SDS011;4691;47.612;7.610;2022-12-13T02:46:53;56.55;;;20.35;;
9306;SDS011;4691;47.612;7.610;2022-12-13T02:49:27;56.35;;;19.95;;
9306;SDS011;4691;47.612;7.610;2022-12-13T02:51:57;65.00;;;21.98;;
9306;SDS011;4691;47.612;7.610;2022-12-13T02:54:24;60.33;;;20.48;;
9306;SDS011;4691;47.612;7.610;2022-12-13T02:56:55;56.85;;;19.77;;
9306;SDS011;4691;47.612;7.610;2022-12-13T02:59:23;57.28;;;20.90;;
9306;SDS011;4691;47.612;7.610;2022-12-13T03:05:50;50.97;;;18.90;;
9306;SDS011;4691;47.612;7.610;2022-12-13T03:08:20;51.22;;;18.75;;
9306;SDS011;4691;47.612;7.610;2022-12-13T03:13:51;52.83;;;18.25;;
9306;SDS011;4691;47.612;7.610;2022-12-13T03:19:33;48.85;;;17.17;;
9306;SDS011;4691;47.612;7.610;2022-12-13T03:21:59;52.15;;;19.38;;
9306;SDS011;4691;47.612;7.610;2022-12-13T03:24:24;53.60;;;18.70;;
9306;SDS011;4691;47.612;7.610;2022-12-13T03:26:50;59.20;;;20.67;;
9306;SDS011;4691;47.612;7.610;2022-12-13T03:29:16;56.00;;;21.05;;
9306;SDS011;4691;47.612;7.610;2022-12-13T03:31:42;53.55;;;19.48;;
9306;SDS011;4691;47.612;7.610;2022-12-13T03:34:07;45.80;;;17.33;;
9306;SDS011;4691;47.612;7.610;2022-12-13T03:36:32;58.78;;;19.92;;
9306;SDS011;4691;47.612;7.610;2022-12-13T03:38:58;52.13;;;19.73;;
9306;SDS011;4691;47.612;7.610;2022-12-13T03:41:24;53.72;;;20.75;;
9306;SDS011;4691;47.612;7.610;2022-12-13T03:44:06;50.13;;;20.02;;
9306;SDS011;4691;47.612;7.610;2022-12-13T03:46:33;58.00;;;20.13;;
9306;SDS011;4691;47.612;7.610;2022-12-13T03:48:58;51.55;;;19.10;;
9306;SDS011;4691;47.612;7.610;2022-12-13T03:51:24;51.30;;;18.65;;
9306;SDS011;4691;47.612;7.610;2022-12-13T03:53:49;60.40;;;21.17;;
9306;SDS011;4691;47.612;7.610;2022-12-13T03:56:15;59.20;;;20.13;;
9306;SDS011;4691;47.612;7.610;2022-12-13T03:58:40;52.63;;;19.77;;
9306;SDS011;4691;47.612;7.610;2022-12-13T04:01:10;55.30;;;20.95;;
9306;SDS011;4691;47.612;7.610;2022-12-13T04:03:38;49.72;;;20.02;;
9306;SDS011;4691;47.612;7.610;2022-12-13T04:06:04;56.22;;;21.75;;
9306;SDS011;4691;47.612;7.610;2022-12-13T04:08:31;50.88;;;19.80;;
9306;SDS011;4691;47.612;7.610;2022-12-13T04:10:56;54.65;;;21.08;;
9306;SDS011;4691;47.612;7.610;2022-12-13T04:13:22;64.30;;;21.92;;
9306;SDS011;4691;47.612;7.610;2022-12-13T04:15:56;55.83;;;19.52;;
9306;SDS011;4691;47.612;7.610;2022-12-13T04:18:22;52.22;;;19.25;;
9306;SDS011;4691;47.612;7.610;2022-12-13T04:20:47;55.90;;;21.02;;
9306;SDS011;4691;47.612;7.610;2022-12-13T04:23:12;54.28;;;18.83;;
9306;SDS011;4691;47.612;7.610;2022-12-13T04:25:38;56.47;;;19.30;;
9306;SDS011;4691;47.612;7.610;2022-12-13T04:28:04;61.13;;;22.27;;
9306;SDS011;4691;47.612;7.610;2022-12-13T04:30:30;52.83;;;20.25;;
9306;SDS011;4691;47.612;7.610;2022-12-13T04:32:56;51.83;;;19.48;;
9306;SDS011;4691;47.612;7.610;2022-12-13T04:35:24;51.47;;;19.52;;
9306;SDS011;4691;47.612;7.610;2022-12-13T04:37:50;52.88;;;19.77;;
9306;SDS011;4691;47.612;7.610;2022-12-13T04:40:16;53.67;;;20.55;;
9306;SDS011;4691;47.612;7.610;2022-12-13T04:42:41;55.75;;;20.55;;
9306;SDS011;4691;47.612;7.610;2022-12-13T04:45:07;56.08;;;21.58;;
9306;SDS011;4691;47.612;7.610;2022-12-13T04:47:36;55.67;;;21.67;;
9306;SDS011;4691;47.612;7.610;2022-12-13T04:50:02;59.50;;;25.02;;
9306;SDS011;4691;47.612;7.610;2022-12-13T04:52:30;67.05;;;26.95;;
9306;SDS011;4691;47.612;7.610;2022-12-13T04:54:56;62.13;;;23.50;;
9306;SDS011;4691;47.612;7.610;2022-12-13T04:57:21;51.88;;;22.20;;
9306;SDS011;4691;47.612;7.610;2022-12-13T04:59:47;50.28;;;21.80;;
9306;SDS011;4691;47.612;7.610;2022-12-13T05:02:12;54.35;;;21.35;;
9306;SDS011;4691;47.612;7.610;2022-12-13T05:04:37;57.30;;;21.17;;
9306;SDS011;4691;47.612;7.610;2022-12-13T05:07:03;59.15;;;22.55;;
9306;SDS011;4691;47.612;7.610;2022-12-13T05:09:28;60.80;;;21.67;;
9306;SDS011;4691;47.612;7.610;2022-12-13T05:11:54;47.00;;;18.52;;
9306;SDS011;4691;47.612;7.610;2022-12-13T05:14:19;45.55;;;19.23;;
9306;SDS011;4691;47.612;7.610;2022-12-13T05:16:44;56.25;;;21.88;;
9306;SDS011;4691;47.612;7.610;2022-12-13T05:19:10;60.53;;;21.45;;
9306;SDS011;4691;47.612;7.610;2022-12-13T05:21:35;50.42;;;20.60;;
9306;SDS011;4691;47.612;7.610;2022-12-13T05:24:01;46.08;;;19.50;;
9306;SDS011;4691;47.612;7.610;2022-12-13T05:26:27;46.70;;;19.13;;
9306;SDS011;4691;47.612;7.610;2022-12-13T05:28:54;54.53;;;22.42;;
9306;SDS011;4691;47.612;7.610;2022-12-13T05:31:20;49.63;;;20.17;;
9306;SDS011;4691;47.612;7.610;2022-12-13T05:33:48;48.22;;;19.70;;
9306;SDS011;4691;47.612;7.610;2022-12-13T05:36:13;59.33;;;23.55;;
9306;SDS011;4691;47.612;7.610;2022-12-13T05:38:39;54.78;;;22.95;;
9306;SDS011;4691;47.612;7.610;2022-12-13T05:41:04;56.72;;;22.88;;
9306;SDS011;4691;47.612;7.610;2022-12-13T05:43:33;52.97;;;21.83;;
9306;SDS011;4691;47.612;7.610;2022-12-13T05:45:58;50.38;;;19.95;;
9306;SDS011;4691;47.612;7.610;2022-12-13T05:48:24;55.85;;;21.83;;
9306;SDS011;4691;47.612;7.610;2022-12-13T05:50:55;58.13;;;22.08;;
9306;SDS011;4691;47.612;7.610;2022-12-13T05:53:20;51.95;;;21.33;;
9306;SDS011;4691;47.612;7.610;2022-12-13T05:55:45;47.90;;;18.70;;
9306;SDS011;4691;47.612;7.610;2022-12-13T05:58:11;50.92;;;20.13;;
9306;SDS011;4691;47.612;7.610;2022-12-13T06:00:37;52.60;;;20.55;;
9306;SDS011;4691;47.612;7.610;2022-12-13T06:03:03;48.60;;;19.08;;
9306;SDS011;4691;47.612;7.610;2022-12-13T06:05:29;52.55;;;20.10;;
9306;SDS011;4691;47.612;7.610;2022-12-13T06:07:54;53.72;;;20.75;;
9306;SDS011;4691;47.612;7.610;2022-12-13T06:10:20;49.00;;;20.30;;
9306;SDS011;4691;47.612;7.610;2022-12-13T06:12:46;53.50;;;22.63;;
9306;SDS011;4691;47.612;7.610;2022-12-13T06:15:12;49.00;;;19.92;;
9306;SDS011;4691;47.612;7.610;2022-12-13T06:17:40;51.20;;;20.00;;
9306;SDS011;4691;47.612;7.610;2022-12-13T06:20:06;46.53;;;19.92;;
9306;SDS011;4691;47.612;7.610;2022-12-13T06:22:35;52.85;;;21.48;;
9306;SDS011;4691;47.612;7.610;2022-12-13T06:25:00;51.95;;;20.35;;
9306;SDS011;4691;47.612;7.610;2022-12-13T06:27:25;43.17;;;19.17;;
9306;SDS011;4691;47.612;7.610;2022-12-13T06:29:51;51.63;;;21.13;;
9306;SDS011;4691;47.612;7.610;2022-12-13T06:32:16;50.17;;;20.40;;
9306;SDS011;4691;47.612;7.610;2022-12-13T06:34:42;45.38;;;18.95;;
9306;SDS011;4691;47.612;7.610;2022-12-13T06:37:09;51.03;;;21.70;;
9306;SDS011;4691;47.612;7.610;2022-12-13T06:39:37;47.70;;;20.90;;
9306;SDS011;4691;47.612;7.610;2022-12-13T06:42:03;45.38;;;20.17;;
9306;SDS011;4691;47.612;7.610;2022-12-13T06:44:32;48.63;;;21.88;;
9306;SDS011;4691;47.612;7.610;2022-12-13T06:46:58;46.63;;;20.30;;
9306;SDS011;4691;47.612;7.610;2022-12-13T06:49:24;47.28;;;21.50;;
9306;SDS011;4691;47.612;7.610;2022-12-13T06:51:49;48.55;;;20.83;;
9306;SDS011;4691;47.612;7.610;2022-12-13T06:54:15;45.95;;;18.63;;
9306;SDS011;4691;47.612;7.610;2022-12-13T06:56:40;43.22;;;17.58;;
9306;SDS011;4691;47.612;7.610;2022-12-13T06:59:05;32.95;;;15.07;;
9306;SDS011;4691;47.612;7.610;2022-12-13T07:01:31;42.40;;;16.35;;
9306;SDS011;4691;47.612;7.610;2022-12-13T07:03:57;42.47;;;17.63;;
9306;SDS011;4691;47.612;7.610;2022-12-13T07:06:22;33.55;;;14.93;;
9306;SDS011;4691;47.612;7.610;2022-12-13T07:08:50;45.22;;;17.40;;
9306;SDS011;4691;47.612;7.610;2022-12-13T07:11:19;42.55;;;16.50;;
9306;SDS011;4691;47.612;7.610;2022-12-13T07:13:46;39.70;;;17.73;;
9306;SDS011;4691;47.612;7.610;2022-12-13T07:16:12;32.55;;;14.38;;
9306;SDS011;4691;47.612;7.610;2022-12-13T07:18:37;45.60;;;19.70;;
9306;SDS011;4691;47.612;7.610;2022-12-13T07:21:04;45.92;;;19.83;;
9306;SDS011;4691;47.612;7.610;2022-12-13T07:23:31;42.83;;;19.02;;
9306;SDS011;4691;47.612;7.610;2022-12-13T07:25:56;45.22;;;18.67;;
9306;SDS011;4691;47.612;7.610;2022-12-13T07:28:24;54.95;;;23.48;;
9306;SDS011;4691;47.612;7.610;2022-12-13T07:30:50;54.13;;;22.20;;
9306;SDS011;4691;47.612;7.610;2022-12-13T07:33:16;52.10;;;21.65;;
9306;SDS011;4691;47.612;7.610;2022-12-13T07:35:41;50.65;;;22.95;;
9306;SDS011;4691;47.612;7.610;2022-12-13T07:38:07;59.60;;;24.90;;
9306;SDS011;4691;47.612;7.610;2022-12-13T07:40:34;58.60;;;24.38;;
9306;SDS011;4691;47.612;7.610;2022-12-13T07:43:00;56.95;;;24.02;;
9306;SDS011;4691;47.612;7.610;2022-12-13T07:45:26;59.67;;;23.55;;
9306;SDS011;4691;47.612;7.610;2022-12-13T07:47:54;62.97;;;26.85;;
9306;SDS011;4691;47.612;7.610;2022-12-13T07:50:31;61.55;;;26.25;;
9306;SDS011;4691;47.612;7.610;2022-12-13T07:53:10;56.58;;;25.77;;
9306;SDS011;4691;47.612;7.610;2022-12-13T07:55:38;78.32;;;30.00;;
9306;SDS011;4691;47.612;7.610;2022-12-13T07:58:08;85.28;;;34.63;;
9306;SDS011;4691;47.612;7.610;2022-12-13T08:00:38;74.32;;;32.60;;
9306;SDS011;4691;47.612;7.610;2022-12-13T08:03:10;62.05;;;25.95;;
9306;SDS011;4691;47.612;7.610;2022-12-13T08:05:37;66.53;;;25.95;;
9306;SDS011;4691;47.612;7.610;2022-12-13T08:08:07;63.75;;;25.27;;
9306;SDS011;4691;47.612;7.610;2022-12-13T08:10:33;69.90;;;30.65;;
9306;SDS011;4691;47.612;7.610;2022-12-13T08:13:02;64.25;;;28.73;;
9306;SDS011;4691;47.612;7.610;2022-12-13T08:15:28;68.28;;;31.20;;
9306;SDS011;4691;47.612;7.610;2022-12-13T08:17:57;67.88;;;30.42;;
9306;SDS011;4691;47.612;7.610;2022-12-13T08:20:24;64.10;;;31.75;;
9306;SDS011;4691;47.612;7.610;2022-12-13T08:22:57;63.95;;;30.83;;
9306;SDS011;4691;47.612;7.610;2022-12-13T08:25:25;56.72;;;26.08;;
9306;SDS011;4691;47.612;7.610;2022-12-13T08:27:51;71.15;;;31.30;;
9306;SDS011;4691;47.612;7.610;2022-12-13T08:30:19;68.95;;;30.58;;
9306;SDS011;4691;47.612;7.610;2022-12-13T08:35:14;57.72;;;24.55;;
9306;SDS011;4691;47.612;7.610;2022-12-13T08:37:39;53.30;;;22.17;;
9306;SDS011;4691;47.612;7.610;2022-12-13T08:40:07;53.22;;;24.27;;
9306;SDS011;4691;47.612;7.610;2022-12-13T08:42:36;35.97;;;16.15;;
9306;SDS011;4691;47.612;7.610;2022-12-13T08:45:07;38.60;;;15.70;;
9306;SDS011;4691;47.612;7.610;2022-12-13T08:47:33;41.28;;;17.60;;
9306;SDS011;4691;47.612;7.610;2022-12-13T08:50:19;40.90;;;18.50;;
9306;SDS011;4691;47.612;7.610;2022-12-13T08:52:47;41.53;;;18.50;;
9306;SDS011;4691;47.612;7.610;2022-12-13T08:55:18;39.55;;;17.75;;
9306;SDS011;4691;47.612;7.610;2022-12-13T08:57:46;43.63;;;20.10;;
9306;SDS011;4691;47.612;7.610;2022-12-13T09:03:07;47.63;;;21.58;;
9306;SDS011;4691;47.612;7.610;2022-12-13T09:05:33;48.60;;;21.42;;
9306;SDS011;4691;47.612;7.610;2022-12-13T09:07:58;46.08;;;21.70;;
9306;SDS011;4691;47.612;7.610;2022-12-13T09:10:26;47.15;;;20.83;;
9306;SDS011;4691;47.612;7.610;2022-12-13T09:12:52;46.90;;;21.98;;
9306;SDS011;4691;47.612;7.610;2022-12-13T09:15:19;46.80;;;22.15;;
9306;SDS011;4691;47.612;7.610;2022-12-13T09:17:44;48.67;;;20.83;;
9306;SDS011;4691;47.612;7.610;2022-12-13T09:20:10;44.58;;;19.77;;
9306;SDS011;4691;47.612;7.610;2022-12-13T09:22:36;52.60;;;21.30;;
9306;SDS011;4691;47.612;7.610;2022-12-13T09:25:03;53.67;;;20.80;;
9306;SDS011;4691;47.612;7.610;2022-12-13T09:27:30;47.70;;;20.15;;
9306;SDS011;4691;47.612;7.610;2022-12-13T09:29:56;47.70;;;21.65;;
9306;SDS011;4691;47.612;7.610;2022-12-13T09:32:22;44.72;;;20.17;;
9306;SDS011;4691;47.612;7.610;2022-12-13T09:34:48;40.65;;;18.67;;
9306;SDS011;4691;47.612;7.610;2022-12-13T09:37:13;36.95;;;19.85;;
9306;SDS011;4691;47.612;7.610;2022-12-13T09:39:38;41.35;;;20.20;;
9306;SDS011;4691;47.612;7.610;2022-12-13T09:42:04;38.30;;;19.27;;
9306;SDS011;4691;47.612;7.610;2022-12-13T09:44:38;44.83;;;21.10;;
9306;SDS011;4691;47.612;7.610;2022-12-13T09:50:26;48.63;;;21.83;;
9306;SDS011;4691;47.612;7.610;2022-12-13T09:52:54;56.45;;;24.17;;
9306;SDS011;4691;47.612;7.610;2022-12-13T09:55:31;47.20;;;22.08;;
9306;SDS011;4691;47.612;7.610;2022-12-13T09:58:04;46.88;;;21.20;;
9306;SDS011;4691;47.612;7.610;2022-12-13T10:00:38;49.33;;;22.30;;
9306;SDS011;4691;47.612;7.610;2022-12-13T10:03:09;48.53;;;20.88;;
9306;SDS011;4691;47.612;7.610;2022-12-13T10:05:41;48.58;;;22.75;;
9306;SDS011;4691;47.612;7.610;2022-12-13T10:08:15;57.75;;;24.08;;
9306;SDS011;4691;47.612;7.610;2022-12-13T10:10:47;68.60;;;29.20;;
9306;SDS011;4691;47.612;7.610;2022-12-13T10:16:27;95.13;;;40.38;;
9306;SDS011;4691;47.612;7.610;2022-12-13T10:21:47;74.70;;;32.97;;
9306;SDS011;4691;47.612;7.610;2022-12-13T10:24:24;75.03;;;30.50;;
9306;SDS011;4691;47.612;7.610;2022-12-13T10:27:12;73.53;;;33.78;;
9306;SDS011;4691;47.612;7.610;2022-12-13T10:32:33;66.85;;;31.13;;
9306;SDS011;4691;47.612;7.610;2022-12-13T10:35:27;66.50;;;27.63;;
9306;SDS011;4691;47.612;7.610;2022-12-13T10:40:37;53.28;;;21.88;;
9306;SDS011;4691;47.612;7.610;2022-12-13T10:43:13;54.13;;;24.05;;
9306;SDS011;4691;47.612;7.610;2022-12-13T10:46:02;52.35;;;22.63;;
9306;SDS011;4691;47.612;7.610;2022-12-13T10:48:33;58.15;;;23.45;;
9306;SDS011;4691;47.612;7.610;2022-12-13T10:54:04;53.72;;;23.00;;
9306;SDS011;4691;47.612;7.610;2022-12-13T10:56:45;54.53;;;24.60;;
9306;SDS011;4691;47.612;7.610;2022-12-13T10:59:39;53.33;;;24.50;;
9306;SDS011;4691;47.612;7.610;2022-12-13T11:02:26;54.85;;;22.13;;
9306;SDS011;4691;47.612;7.610;2022-12-13T11:05:48;45.70;;;21.42;;
9306;SDS011;4691;47.612;7.610;2022-12-13T11:08:25;40.45;;;18.40;;
9306;SDS011;4691;47.612;7.610;2022-12-13T11:11:01;38.78;;;18.38;;
9306;SDS011;4691;47.612;7.610;2022-12-13T11:13:36;51.67;;;23.42;;
9306;SDS011;4691;47.612;7.610;2022-12-13T11:16:25;50.30;;;24.77;;
9306;SDS011;4691;47.612;7.610;2022-12-13T11:21:52;47.13;;;21.60;;
9306;SDS011;4691;47.612;7.610;2022-12-13T11:24:23;43.67;;;20.38;;
9306;SDS011;4691;47.612;7.610;2022-12-13T11:26:56;42.92;;;18.42;;
9306;SDS011;4691;47.612;7.610;2022-12-13T11:29:46;54.83;;;21.20;;
9306;SDS011;4691;47.612;7.610;2022-12-13T11:35:26;45.72;;;18.52;;
9306;SDS011;4691;47.612;7.610;2022-12-13T11:38:23;41.83;;;18.50;;
9306;SDS011;4691;47.612;7.610;2022-12-13T11:40:55;35.50;;;16.55;;
9306;SDS011;4691;47.612;7.610;2022-12-13T11:43:53;34.60;;;15.63;;
9306;SDS011;4691;47.612;7.610;2022-12-13T11:46:28;31.40;;;15.88;;
9306;SDS011;4691;47.612;7.610;2022-12-13T11:49:08;30.58;;;15.88;;
9306;SDS011;4691;47.612;7.610;2022-12-13T11:51:41;28.50;;;15.40;;
9306;SDS011;4691;47.612;7.610;2022-12-13T11:54:16;23.45;;;12.95;;
9306;SDS011;4691;47.612;7.610;2022-12-13T11:56:48;29.55;;;14.85;;
9306;SDS011;4691;47.612;7.610;2022-12-13T12:04:50;25.25;;;12.25;;
9306;SDS011;4691;47.612;7.610;2022-12-13T12:09:56;31.08;;;14.65;;
9306;SDS011;4691;47.612;7.610;2022-12-13T12:12:34;22.65;;;11.68;;
9306;SDS011;4691;47.612;7.610;2022-12-13T12:15:03;26.25;;;13.23;;
9306;SDS011;4691;47.612;7.610;2022-12-13T12:17:32;23.13;;;11.93;;
9306;SDS011;4691;47.612;7.610;2022-12-13T12:19:58;23.40;;;11.77;;
9306;SDS011;4691;47.612;7.610;2022-12-13T12:22:38;21.27;;;11.52;;
9306;SDS011;4691;47.612;7.610;2022-12-13T12:33:09;20.17;;;10.93;;
9306;SDS011;4691;47.612;7.610;2022-12-13T12:39:04;22.67;;;12.48;;
9306;SDS011;4691;47.612;7.610;2022-12-13T12:44:52;26.42;;;12.70;;
9306;SDS011;4691;47.612;7.610;2022-12-13T12:50:17;27.25;;;12.63;;
9306;SDS011;4691;47.612;7.610;2022-12-13T12:55:45;22.80;;;11.70;;
9306;SDS011;4691;47.612;7.610;2022-12-13T13:01:33;20.40;;;11.32;;
9306;SDS011;4691;47.612;7.610;2022-12-13T13:04:20;27.80;;;14.80;;
9306;SDS011;4691;47.612;7.610;2022-12-13T13:06:52;27.73;;;13.77;;
9306;SDS011;4691;47.612;7.610;2022-12-13T13:09:30;24.65;;;13.50;;
9306;SDS011;4691;47.612;7.610;2022-12-13T13:11:57;23.63;;;12.88;;
9306;SDS011;4691;47.612;7.610;2022-12-13T13:14:33;23.70;;;12.50;;
9306;SDS011;4691;47.612;7.610;2022-12-13T13:19:40;27.45;;;14.55;;
9306;SDS011;4691;47.612;7.610;2022-12-13T13:24:59;24.60;;;12.70;;
9306;SDS011;4691;47.612;7.610;2022-12-13T13:27:28;24.02;;;12.13;;
9306;SDS011;4691;47.612;7.610;2022-12-13T13:32:51;23.45;;;13.40;;
9306;SDS011;4691;47.612;7.610;2022-12-13T13:47:12;24.83;;;12.23;;
9306;SDS011;4691;47.612;7.610;2022-12-13T13:52:45;33.30;;;13.73;;
9306;SDS011;4691;47.612;7.610;2022-12-13T13:58:38;28.73;;;13.85;;
9306;SDS011;4691;47.612;7.610;2022-12-13T14:01:29;30.27;;;14.10;;
9306;SDS011;4691;47.612;7.610;2022-12-13T14:10:36;26.17;;;13.60;;
9306;SDS011;4691;47.612;7.610;2022-12-13T14:13:39;35.55;;;14.75;;
9306;SDS011;4691;47.612;7.610;2022-12-13T14:39:26;25.95;;;13.93;;
9306;SDS011;4691;47.612;7.610;2022-12-13T14:42:01;29.20;;;14.55;;
9306;SDS011;4691;47.612;7.610;2022-12-13T14:44:44;25.45;;;14.80;;
9306;SDS011;4691;47.612;7.610;2022-12-13T14:47:09;28.58;;;14.10;;
9306;SDS011;4691;47.612;7.610;2022-12-13T14:49:40;25.08;;;14.00;;
9306;SDS011;4691;47.612;7.610;2022-12-13T14:52:17;31.33;;;15.77;;
9306;SDS011;4691;47.612;7.610;2022-12-13T14:54:47;24.95;;;13.43;;
9306;SDS011;4691;47.612;7.610;2022-12-13T14:57:24;31.02;;;15.10;;
9306;SDS011;4691;47.612;7.610;2022-12-13T14:59:54;29.27;;;14.95;;
9306;SDS011;4691;47.612;7.610;2022-12-13T15:02:22;35.50;;;15.70;;
9306;SDS011;4691;47.612;7.610;2022-12-13T15:04:54;32.77;;;15.40;;
9306;SDS011;4691;47.612;7.610;2022-12-13T15:10:00;31.17;;;15.30;;
9306;SDS011;4691;47.612;7.610;2022-12-13T15:12:28;26.85;;;13.68;;
9306;SDS011;4691;47.612;7.610;2022-12-13T15:15:00;29.60;;;15.52;;
9306;SDS011;4691;47.612;7.610;2022-12-13T15:19:59;27.67;;;14.30;;
9306;SDS011;4691;47.612;7.610;2022-12-13T15:22:24;25.77;;;13.75;;
9306;SDS011;4691;47.612;7.610;2022-12-13T15:24:50;24.58;;;13.38;;
9306;SDS011;4691;47.612;7.610;2022-12-13T15:27:18;33.42;;;16.05;;
9306;SDS011;4691;47.612;7.610;2022-12-13T15:29:46;33.05;;;16.15;;
9306;SDS011;4691;47.612;7.610;2022-12-13T15:32:14;27.30;;;14.13;;
9306;SDS011;4691;47.612;7.610;2022-12-13T15:34:43;31.90;;;16.58;;
9306;SDS011;4691;47.612;7.610;2022-12-13T15:39:43;35.75;;;16.90;;
9306;SDS011;4691;47.612;7.610;2022-12-13T15:42:22;34.25;;;17.45;;
9306;SDS011;4691;47.612;7.610;2022-12-13T15:44:59;35.40;;;17.13;;
9306;SDS011;4691;47.612;7.610;2022-12-13T15:47:27;34.78;;;17.63;;
9306;SDS011;4691;47.612;7.610;2022-12-13T15:50:00;39.70;;;16.10;;
9306;SDS011;4691;47.612;7.610;2022-12-13T15:52:37;31.88;;;17.30;;
9306;SDS011;4691;47.612;7.610;2022-12-13T15:57:30;37.20;;;17.60;;
9306;SDS011;4691;47.612;7.610;2022-12-13T16:03:00;39.60;;;18.17;;
9306;SDS011;4691;47.612;7.610;2022-12-13T16:05:30;35.27;;;18.13;;
9306;SDS011;4691;47.612;7.610;2022-12-13T16:07:59;40.78;;;19.05;;
9306;SDS011;4691;47.612;7.610;2022-12-13T16:10:27;37.20;;;19.15;;
9306;SDS011;4691;47.612;7.610;2022-12-13T16:12:55;37.20;;;18.35;;
9306;SDS011;4691;47.612;7.610;2022-12-13T16:15:31;38.20;;;18.27;;
9306;SDS011;4691;47.612;7.610;2022-12-13T16:18:11;37.97;;;19.40;;
9306;SDS011;4691;47.612;7.610;2022-12-13T16:20:42;45.90;;;19.27;;
9306;SDS011;4691;47.612;7.610;2022-12-13T16:23:10;41.85;;;19.30;;
9306;SDS011;4691;47.612;7.610;2022-12-13T16:25:35;38.90;;;19.60;;
9306;SDS011;4691;47.612;7.610;2022-12-13T16:28:01;46.33;;;19.02;;
9306;SDS011;4691;47.612;7.610;2022-12-13T16:30:27;41.65;;;18.40;;
9306;SDS011;4691;47.612;7.610;2022-12-13T16:33:13;40.17;;;19.63;;
9306;SDS011;4691;47.612;7.610;2022-12-13T16:35:38;45.78;;;20.23;;
9306;SDS011;4691;47.612;7.610;2022-12-13T16:38:04;42.45;;;20.42;;
9306;SDS011;4691;47.612;7.610;2022-12-13T16:40:29;41.67;;;20.42;;
9306;SDS011;4691;47.612;7.610;2022-12-13T16:42:57;46.20;;;22.60;;
9306;SDS011;4691;47.612;7.610;2022-12-13T16:45:24;45.92;;;23.80;;
9306;SDS011;4691;47.612;7.610;2022-12-13T16:47:50;45.65;;;23.17;;
9306;SDS011;4691;47.612;7.610;2022-12-13T16:50:17;44.72;;;20.67;;
9306;SDS011;4691;47.612;7.610;2022-12-13T16:52:43;39.70;;;19.25;;
9306;SDS011;4691;47.612;7.610;2022-12-13T16:55:09;41.08;;;20.83;;
9306;SDS011;4691;47.612;7.610;2022-12-13T16:57:34;47.85;;;20.70;;
9306;SDS011;4691;47.612;7.610;2022-12-13T17:00:00;46.55;;;21.00;;
9306;SDS011;4691;47.612;7.610;2022-12-13T17:02:25;45.97;;;21.70;;
9306;SDS011;4691;47.612;7.610;2022-12-13T17:04:50;45.58;;;22.25;;
9306;SDS011;4691;47.612;7.610;2022-12-13T17:07:16;47.78;;;22.45;;
9306;SDS011;4691;47.612;7.610;2022-12-13T17:09:44;42.97;;;21.02;;
9306;SDS011;4691;47.612;7.610;2022-12-13T17:12:09;47.65;;;22.98;;
9306;SDS011;4691;47.612;7.610;2022-12-13T17:14:35;41.40;;;19.90;;
9306;SDS011;4691;47.612;7.610;2022-12-13T17:17:00;43.58;;;20.98;;
9306;SDS011;4691;47.612;7.610;2022-12-13T17:19:26;44.22;;;20.02;;
9306;SDS011;4691;47.612;7.610;2022-12-13T17:21:51;43.63;;;20.58;;
9306;SDS011;4691;47.612;7.610;2022-12-13T17:24:17;47.25;;;21.40;;
9306;SDS011;4691;47.612;7.610;2022-12-13T17:26:42;44.88;;;21.23;;
9306;SDS011;4691;47.612;7.610;2022-12-13T17:29:08;46.67;;;21.27;;
9306;SDS011;4691;47.612;7.610;2022-12-13T17:31:34;43.63;;;21.50;;
9306;SDS011;4691;47.612;7.610;2022-12-13T17:34:00;42.00;;;20.20;;
9306;SDS011;4691;47.612;7.610;2022-12-13T17:36:26;47.33;;;21.27;;
9306;SDS011;4691;47.612;7.610;2022-12-13T17:38:52;47.40;;;23.15;;
9306;SDS011;4691;47.612;7.610;2022-12-13T17:41:17;43.35;;;21.05;;